createdAt,value
2023-04-11T05:03:10.793Z,64.48
2023-04-11T05:08:12.687Z,64.84
2023-04-11T05:13:14.900Z,64.93
2023-04-11T05:18:17.610Z,65.49
2023-04-11T05:23:20.824Z,65.99
2023-04-11T05:28:24.098Z,65.95
2023-04-11T05:33:25.649Z,66.08
2023-04-11T05:38:28.459Z,66.20
2023-04-11T05:43:30.089Z,66.65
2023-04-11T05:48:36.074Z,66.77
2023-04-11T05:53:37.510Z,66.99
2023-04-11T05:58:39.528Z,67.16
2023-04-11T06:03:41.151Z,66.89
2023-04-11T06:08:42.908Z,67.21
2023-04-11T06:13:44.381Z,66.97
2023-04-11T06:18:46.044Z,67.47
2023-04-11T06:23:47.475Z,67.58
2023-04-11T06:28:51.233Z,68.03
2023-04-11T06:33:52.699Z,68.34
2023-04-11T06:38:54.188Z,69.25
2023-04-11T06:43:55.904Z,70.37
2023-04-11T06:48:57.569Z,71.58
2023-04-11T06:53:59.220Z,73.73
2023-04-11T06:59:01.418Z,76.28
2023-04-11T07:04:07.006Z,77.84
2023-04-11T07:09:12.926Z,79.61
2023-04-11T07:14:14.450Z,80.65
2023-04-11T07:19:15.891Z,80.40
2023-04-11T07:24:18.565Z,81.05
2023-04-11T07:29:20.295Z,81.52
2023-04-11T07:34:21.794Z,81.78
2023-04-11T07:39:23.330Z,81.91
2023-04-11T07:44:24.806Z,82.83
2023-04-11T07:49:26.278Z,83.55
2023-04-11T07:54:28.408Z,83.01
2023-04-11T07:59:29.904Z,84.07
2023-04-11T08:04:33.597Z,84.93
2023-04-11T08:09:35.359Z,84.98
2023-04-11T08:14:37.209Z,85.05
2023-04-11T08:19:38.960Z,85.70
2023-04-11T08:24:40.489Z,86.08
2023-04-11T08:29:41.971Z,86.04
2023-04-11T08:34:43.412Z,85.29
2023-04-11T08:39:44.860Z,85.76
2023-04-11T08:44:52.968Z,86.06
2023-04-11T08:49:56.359Z,86.57
2023-04-11T08:54:57.807Z,86.02
2023-04-11T09:00:02.108Z,86.05
2023-04-11T09:05:03.908Z,85.50
2023-04-11T09:10:19.583Z,85.01
2023-04-11T09:15:26.447Z,85.89
2023-04-11T09:20:31.256Z,86.87
2023-04-11T09:25:43.838Z,86.52
2023-04-11T09:30:53.459Z,86.65
2023-04-11T09:35:56.621Z,85.88
2023-04-11T09:40:59.634Z,85.45
2023-04-11T09:46:12.099Z,85.36
2023-04-11T09:51:27.588Z,84.56
2023-04-11T09:56:36.666Z,83.92
2023-04-11T10:01:38.816Z,83.94
2023-04-11T10:07:02.190Z,82.79
2023-04-11T10:12:04.150Z,82.17
2023-04-11T10:17:18.644Z,82.22
2023-04-11T10:22:59.156Z,81.88
2023-04-11T10:28:01.313Z,81.53
2023-04-11T10:33:09.926Z,80.66
2023-04-11T10:38:48.918Z,80.10
2023-04-11T10:43:51.763Z,79.86
2023-04-11T10:49:04.545Z,79.57
2023-04-11T10:54:06.294Z,82.38
2023-04-11T10:59:10.584Z,83.07
2023-04-11T11:04:13.147Z,83.49
2023-04-11T11:09:21.971Z,83.26
2023-04-11T11:14:32.516Z,84.46
2023-04-11T11:19:35.582Z,83.95
2023-04-11T11:24:37.062Z,84.00
2023-04-11T11:29:38.681Z,83.32
2023-04-11T11:34:40.343Z,80.66
2023-04-11T11:39:43.580Z,73.71
2023-04-11T11:44:45.337Z,84.61
2023-04-11T11:49:56.770Z,88.60
2023-04-11T11:54:58.532Z,90.49
2023-04-11T12:00:01.821Z,90.26
2023-04-11T12:05:06.382Z,90.51
2023-04-11T12:10:13.422Z,90.30
2023-04-11T12:15:19.831Z,89.76
2023-04-11T12:20:26.455Z,91.31
2023-04-11T12:25:28.695Z,91.34
2023-04-11T12:30:30.387Z,90.63
2023-04-11T12:35:32.805Z,90.78
2023-04-11T12:40:34.314Z,90.53
2023-04-11T12:45:36.046Z,89.35
2023-04-11T12:50:37.596Z,87.81
2023-04-11T12:55:39.117Z,87.92
2023-04-11T13:00:40.752Z,86.45
2023-04-11T13:05:42.191Z,85.97
2023-04-11T13:10:43.833Z,85.94
2023-04-11T13:15:46.209Z,86.30
2023-04-11T13:20:47.661Z,85.17
2023-04-11T13:25:49.113Z,86.22
2023-04-11T13:30:50.589Z,87.72
2023-04-11T13:35:52.256Z,84.83
2023-04-11T13:40:55.403Z,83.63
2023-04-11T13:45:57.044Z,84.01
2023-04-11T13:50:59.734Z,84.78
2023-04-11T13:56:03.266Z,84.93
2023-04-11T14:01:05.209Z,85.60
2023-04-11T14:06:08.759Z,83.62
2023-04-11T14:11:10.279Z,83.03
2023-04-11T14:16:11.715Z,81.80
2023-04-11T14:21:13.406Z,80.19
2023-04-11T14:26:14.850Z,78.89
2023-04-11T14:31:16.368Z,78.41
2023-04-11T14:36:18.006Z,77.31
2023-04-11T14:41:19.474Z,77.67
2023-04-11T14:46:20.964Z,75.73
2023-04-11T14:51:25.217Z,73.73
2023-04-11T14:56:26.835Z,72.00
2023-04-11T15:01:28.306Z,70.93
2023-04-11T15:06:29.834Z,69.00
2023-04-11T15:11:31.471Z,76.23
2023-04-11T15:16:33.010Z,80.20
2023-04-11T15:21:34.504Z,82.43
2023-04-11T15:26:36.284Z,86.66
2023-04-11T15:31:38.782Z,88.28
2023-04-11T15:36:41.947Z,87.93
2023-04-11T15:41:43.374Z,88.49
2023-04-11T15:46:46.778Z,88.90
2023-04-11T15:51:50.190Z,90.24
2023-04-11T15:56:51.778Z,90.08
2023-04-11T16:01:53.354Z,89.16
2023-04-11T16:06:56.905Z,88.67
2023-04-11T16:11:58.343Z,87.29
2023-04-11T16:16:59.796Z,90.06
2023-04-11T16:22:01.318Z,91.26
2023-04-11T16:27:02.791Z,92.14
2023-04-11T16:32:04.742Z,91.69
2023-04-11T16:37:06.388Z,90.17
2023-04-11T16:42:07.819Z,89.57
2023-04-11T16:47:09.997Z,88.70
2023-04-11T16:52:11.624Z,91.04
2023-04-11T16:57:13.077Z,90.93
2023-04-11T17:02:14.727Z,89.87
2023-04-11T17:07:16.447Z,88.79
2023-04-11T17:12:17.897Z,89.13
2023-04-11T17:17:20.819Z,89.39
2023-04-11T17:22:22.276Z,89.23
2023-04-11T17:27:23.736Z,89.36
2023-04-11T17:32:25.649Z,89.97
2023-04-11T17:37:27.662Z,90.21
2023-04-11T17:42:29.181Z,89.06
2023-04-11T17:47:30.760Z,87.31
2023-04-11T17:52:32.235Z,86.64
2023-04-11T17:57:34.548Z,86.98
2023-04-11T18:02:42.244Z,86.81
2023-04-11T18:07:45.105Z,86.45
2023-04-11T18:12:51.475Z,86.85
2023-04-11T18:17:53.350Z,87.37
2023-04-11T18:22:55.993Z,88.11
2023-04-11T18:27:57.472Z,88.25
2023-04-11T18:32:58.913Z,88.08
2023-04-11T18:38:00.472Z,85.11
2023-04-11T18:43:01.914Z,83.72
2023-04-11T18:48:03.583Z,83.88
2023-04-11T18:53:07.336Z,85.03
2023-04-11T18:58:12.292Z,86.08
2023-04-11T19:03:16.637Z,87.35
2023-04-11T19:08:18.215Z,88.25
2023-04-11T19:13:19.769Z,88.28
2023-04-11T19:18:21.421Z,88.35
2023-04-11T19:23:23.092Z,88.88
2023-04-11T19:28:24.580Z,88.74
2023-04-11T19:33:26.215Z,87.89
2023-04-11T19:38:27.802Z,86.52
2023-04-11T19:43:29.566Z,85.58
2023-04-11T19:48:31.087Z,86.22
2023-04-11T19:53:36.367Z,86.38
2023-04-11T19:58:37.903Z,85.99
2023-04-11T20:03:40.563Z,85.50
2023-04-11T20:08:42.269Z,85.38
2023-04-11T20:13:43.718Z,84.96
2023-04-11T20:18:45.249Z,84.60
2023-04-11T20:23:48.102Z,84.61
2023-04-11T20:28:50.289Z,84.79
2023-04-11T20:33:51.906Z,84.77
2023-04-11T20:38:55.171Z,84.92
2023-04-11T20:43:57.461Z,84.82
2023-04-11T20:48:59.043Z,85.22
2023-04-11T20:54:00.518Z,84.54
2023-04-11T20:59:02.529Z,84.82
2023-04-11T21:04:04.596Z,85.02
2023-04-11T21:09:06.286Z,84.68
2023-04-11T21:14:07.707Z,85.00
2023-04-11T21:19:11.478Z,85.05
2023-04-11T21:24:12.917Z,84.67
2023-04-11T21:29:14.326Z,85.23
2023-04-11T21:34:15.760Z,84.85
2023-04-11T21:39:17.181Z,85.33
2023-04-11T21:44:18.634Z,85.01
2023-04-11T21:49:20.074Z,84.85
2023-04-11T21:54:21.556Z,85.08
2023-04-11T21:59:22.995Z,84.72
